Ada, Oklahoma
Current Conditions -  °F | °C
As of 3:35 PM on Friday 31 Oct 2014 (Local Time) from KADH Reporting Station
Clear Clear  
Wind Chill: 61°   Ceiling: Unl
Heat Index: 61°   Visibility: 10mi
Dew Point: 37°   Wind: 13mph
Humidity: 42%   Direction: 350°N
Pressure: 30.34"   Gusts: 22mph
Location:  34.78°N, 96.68°W
Report Text: KADH 312035Z AUTO 35011G19KT 10SM CLR 16/03 A3034 RMK AO2
Loading
Personal Weather Stations






























Interactive Weather Map
Tropical Storm Tracking
New forecast layout! Learn more

10-Day Weather Forecast

Advertisements
Track Severe Weather on mobile